Weather reports worldwide

Advertisment
S. Valentino Alla Muta, Italy (16008): temperature & dewpoint: 11.01.2021 22:00:00 - 17.01.2021 22:00:00 (CET)S. Valentino Alla Muta, Italy (16008): wind speed: 11.01.2021 22:00:00 - 17.01.2021 22:00:00 (CET)S. Valentino Alla Muta, Italy (16008): wind direction: 11.01.2021 22:00:00 - 17.01.2021 22:00:00 (CET)S. Valentino Alla Muta, Italy (16008): visibility: 11.01.2021 22:00:00 - 17.01.2021 22:00:00 (CET)
Date & Time tt [°C] td [°C] ff [km/h] ff [kn] dd vv [km]
17.01.2021 22:00:00 -4,0 -6,8 13 7 NNE 6
17.01.2021 21:00:00 -4,0 -7,3 8 4 NNE 6
17.01.2021 20:00:00 -4,0 -6,9 9 5 NNE 6
17.01.2021 19:00:00 -3,8 -8,5 8 4 NNE 6
17.01.2021 18:00:00 -4,2 -8,3 13 7 NNE 8
17.01.2021 17:00:00 -3,2 -6,8 11 6 NNE 10
17.01.2021 16:00:00 -3,0 -6,5 9 5 N 10
17.01.2021 15:00:00 -2,6 -7,1 9 5 NNE 10
17.01.2021 14:00:00 -2,6 -7,1 13 7 NNE 10
17.01.2021 13:00:00 -3,0 -5,0 13 7 NNE 8
17.01.2021 12:00:00 -4,0 -7,3 8 4 N 8
17.01.2021 11:00:00 -5,0 -7,0 11 6 N 6
17.01.2021 10:00:00 -6,0 -7,8 9 5 N 6
17.01.2021 09:00:00 -6,4 -8,3 9 5 N 3,0
17.01.2021 08:00:00 -6,4 -8,6 11 6 N 5
17.01.2021 07:00:00 -7,0 -9,2 13 7 NNE 8
17.01.2021 06:00:00 -7,2 -10,1 9 5 NNE 5
17.01.2021 05:00:00 -7,2 -9,9 9 5 N 8
17.01.2021 04:00:00 -8,2 -11,5 9 5 NNE 10
17.01.2021 03:00:00 -8,2 -11,5 9 5 N 10
17.01.2021 02:00:00 -9,4 -12,7 13 7 NNE 10
17.01.2021 01:00:00 -9,4 -12,7 13 7 NNE 10
17.01.2021 00:00:00 -10,0 -13,6 13 7 NNE 10
16.01.2021 23:00:00 -10,0 -13,3 13 7 NNE 10
16.01.2021 22:00:00 -10,0 -13,3 13 7 NNE 10
16.01.2021 21:00:00 -10,4 -14,5 11 6 NNE 10
16.01.2021 20:00:00 -10,0 -13,4 11 6 NNE 10
16.01.2021 19:00:00 -10,0 -14,1 13 7 NNE 10
16.01.2021 18:00:00 -8,8 -14,0 11 6 NNE 20
16.01.2021 17:00:00 -7,8 -14,2 11 6 N 20
16.01.2021 16:00:00 -7,2 -14,3 11 6 N 20
16.01.2021 15:00:00 -5,2 -13,3 13 7 N 20
16.01.2021 14:00:00 -5,2 -12,8 15 8 NNE 20
16.01.2021 13:00:00 -5,6 -13,7 13 7 NNE 20
16.01.2021 12:00:00 -6,4 -14,0 15 8 NNE 20
16.01.2021 11:00:00 -7,8 -13,4 15 8 NNE 20
16.01.2021 10:00:00 -10,6 -14,0 15 8 NNE 20
16.01.2021 09:00:00 -10,8 -13,9 15 8 NNE 20
16.01.2021 08:00:00 -11,0 -14,1 15 8 N 20
16.01.2021 07:00:00 -10,8 -13,9 13 7 N 18
16.01.2021 06:00:00 -10,4 -13,5 11 6 N 12
16.01.2021 05:00:00 -10,0 -13,1 15 8 N 12
16.01.2021 04:00:00 -9,6 -12,7 15 8 NNE 12
16.01.2021 03:00:00 -9,2 -12,0 15 8 NNE 10
16.01.2021 02:00:00 -9,4 -12,2 15 8 NNE 10
16.01.2021 01:00:00 -9,8 -12,3 15 8 NNE 10
16.01.2021 00:00:00 -9,6 -12,3 11 6 N 10
15.01.2021 23:00:00 -9,2 -12,2 11 6 N 10
15.01.2021 22:00:00 -8,4 -11,2 11 6 N 10
15.01.2021 21:00:00 -7,8 -10,6 13 7 NNE 10
15.01.2021 20:00:00 -7,0 -9,9 11 6 N 12
15.01.2021 19:00:00 -6,8 -9,5 13 7 N 15
15.01.2021 18:00:00 -6,0 -8,6 15 8 N 20
15.01.2021 17:00:00 -5,8 -8,5 15 8 N 20
15.01.2021 16:00:00 -5,0 -8,1 13 7 N 20
15.01.2021 15:00:00 -3,0 -6,8 15 8 N 20
15.01.2021 14:00:00 -3,2 -6,8 16 9 NNE 20
15.01.2021 13:00:00 -4,8 -7,7 8 4 N 5
15.01.2021 12:00:00 -5,2 -7,0 8 4 N 1,5
15.01.2021 11:00:00 -5,4 -7,2 8 4 N 2,0
15.01.2021 10:00:00 -5,2 -6,9 8 4 N 1,5
15.01.2021 09:00:00 -5,0 -6,1 4 2 N 1,2
15.01.2021 08:00:00 -5,2 -6,2 5 3 S 1,2
15.01.2021 07:00:00 -5,2 -6,2 5 3 S 1,2
15.01.2021 06:00:00 -5,0 -6,4 5 3 SSW 1,2
15.01.2021 05:00:00 -5,0 -6,2 5 3 SSW 1,2
15.01.2021 04:00:00 -5,0 -6,0 4 2 N 1,2
15.01.2021 03:00:00 -5,0 -5,8 5 3 S 1,2
15.01.2021 02:00:00 -5,0 -6,7 4 2 N 1,2
15.01.2021 01:00:00 -4,8 -6,5 4 2 N 1,2
15.01.2021 00:00:00 -4,6 -6,3 9 5 NNE 10
14.01.2021 23:00:00 -4,6 -6,3 8 4 N 1,2
14.01.2021 22:00:00 -4,6 -6,3 9 5 NNE 1,2
14.01.2021 21:00:00 -4,4 -6,1 8 4 N 1,2
14.01.2021 20:00:00 -4,4 -5,8 11 6 NNE 1,0
14.01.2021 19:00:00 -4,2 -6,3 9 5 NNE 1,2
14.01.2021 18:00:00 -3,6 -6,2 9 5 NNE 3,0
14.01.2021 17:00:00 -3,2 -6,5 11 6 ENE 1,5
14.01.2021 16:00:00 -3,4 -5,7 9 5 NE 0,8
14.01.2021 15:00:00 -3,0 -5,5 8 4 NE 0,8
14.01.2021 14:00:00 -2,6 -5,6 13 7 NNE 0,8
14.01.2021 13:00:00 -2,4 -5,4 8 4 NNE 1,5
14.01.2021 12:00:00 -2,4 -5,7 15 8 NNE 2,5
14.01.2021 11:00:00 -2,2 -4,5 18 10 NNE 1,5
14.01.2021 10:00:00 -2,2 -3,8 15 8 N 1,5
14.01.2021 09:00:00 -1,0 -1,7 16 9 NNE 1,5
14.01.2021 08:00:00 -1,0 -2,0 16 9 NNE 1,5
14.01.2021 07:00:00 -1,0 -1,1 8 4 NNE 1,2
14.01.2021 06:00:00 -1,6 -1,6 8 4 NNE 1,2
14.01.2021 05:00:00 -2,0 -2,0 5 3 NNE 1,5
14.01.2021 04:00:00 -4,8 -5,2 5 3 N 1,5
14.01.2021 03:00:00 -4,8 -5,2 5 3 N 1,5
14.01.2021 02:00:00 -5,0 -5,5 9 5 NNE 1,2
14.01.2021 01:00:00 -4,8 -5,5 9 5 NNE 1,5
14.01.2021 00:00:00 -4,6 -5,5 5 3 NNE 2,0
13.01.2021 23:00:00 -4,2 -5,4 4 2 NNE 3,0
13.01.2021 22:00:00 -4,0 -5,5 0 0 N 4,0
13.01.2021 21:00:00 -3,8 -6,3 0 0 N 5
13.01.2021 20:00:00 -3,6 -13,0 5 3 NNE 8
13.01.2021 19:00:00 -2,8 -11,8 4 2 WNW 8
13.01.2021 18:00:00 -2,6 -15,0 4 2 ENE 12
13.01.2021 17:00:00 -2,4 -16,8 8 4 NE 20
13.01.2021 16:00:00 -1,6 -16,1 8 4 NNE 20
13.01.2021 15:00:00 -0,6 -16,0 11 6 NE 20
13.01.2021 14:00:00 -1,6 -15,4 9 5 N 20
13.01.2021 13:00:00 -2,4 -14,8 9 5 N 18
13.01.2021 12:00:00 -2,6 -15,0 13 7 N 15
13.01.2021 11:00:00 -3,0 -14,7 13 7 NNE 10
13.01.2021 10:00:00 -3,0 -12,7 9 5 NNE 10
13.01.2021 09:00:00 -3,8 -9,8 8 4 NNE 10
13.01.2021 08:00:00 -4,0 -10,2 5 3 NNE 10
13.01.2021 07:00:00 -3,6 -8,5 8 4 NE 10
13.01.2021 06:00:00 -2,6 -5,3 5 3 N 8
13.01.2021 05:00:00 -2,6 -5,3 5 3 NNE 6
13.01.2021 04:00:00 -2,4 -3,5 5 3 N 3,0
13.01.2021 03:00:00 -2,4 -3,7 8 4 NNE 2,5
13.01.2021 02:00:00 -2,4 -3,1 8 4 N 1,5
13.01.2021 01:00:00 -2,4 -3,1 5 3 N 1,5
13.01.2021 00:00:00 -2,4 -3,1 5 3 N 1,5
12.01.2021 23:00:00 -2,4 -3,1 5 3 NNE 1,5
12.01.2021 22:00:00 -2,2 -2,7 5 3 N 1,2
12.01.2021 21:00:00 -2,2 -2,6 5 3 NNE 3,0
12.01.2021 20:00:00 -2,2 -3,0 8 4 NNE 3,0
12.01.2021 19:00:00 -2,2 -3,0 8 4 NNE 3,0
12.01.2021 18:00:00 -1,8 -3,7 8 4 NNE 3,0
12.01.2021 17:00:00 -1,4 -3,9 5 3 N 3,0
12.01.2021 16:00:00 -0,8 -4,5 5 3 NNE 5
12.01.2021 15:00:00 -0,8 -7,6 9 5 NNE 8
12.01.2021 14:00:00 -1,0 -8,9 5 3 N 15
12.01.2021 13:00:00 -1,2 -9,5 8 4 N 20
12.01.2021 12:00:00 -1,8 -10,3 9 5 N 20
12.01.2021 11:00:00 -4,2 -12,3 9 5 N 15
12.01.2021 10:00:00 -6,4 -13,7 8 4 NNE 15
12.01.2021 09:00:00 -7,4 -14,0 8 4 N 15
12.01.2021 08:00:00 -7,6 -14,6 9 5 N 18
12.01.2021 07:00:00 -7,6 -15,3 13 7 N 12
12.01.2021 06:00:00 -7,6 -15,1 9 5 N 12
12.01.2021 05:00:00 -8,0 -15,7 9 5 NNE 12
12.01.2021 04:00:00 -8,2 -15,9 9 5 NNE 10
12.01.2021 03:00:00 - - - - - -
12.01.2021 02:00:00 -9,0 -16,8 13 7 NNE 10
12.01.2021 01:00:00 -9,0 -16,8 13 7 NNE 10
12.01.2021 00:00:00 -9,0 -17,1 11 6 NNE 10
11.01.2021 23:00:00 -8,6 -16,7 11 6 N 10
11.01.2021 22:00:00 -7,8 -17,1 15 8 NNE 10

tt = temperature
td = dewpoint
ff = wind speed
dd = wind direction
vv = visibility

Next stations